sensor_id;sensor_type;location;lat;lon;timestamp;P1;durP1;ratioP1;P2;durP2;ratioP2
38613;SDS011;24369;49.480;8.488;2022-07-25T00:00:12;211.27;;;194.63;;
38613;SDS011;24369;49.480;8.488;2022-07-25T00:02:38;216.73;;;199.85;;
38613;SDS011;24369;49.480;8.488;2022-07-25T00:05:03;195.32;;;179.35;;
38613;SDS011;24369;49.480;8.488;2022-07-25T00:07:29;197.45;;;180.70;;
38613;SDS011;24369;49.480;8.488;2022-07-25T00:09:54;204.88;;;186.02;;
38613;SDS011;24369;49.480;8.488;2022-07-25T00:12:20;195.10;;;178.73;;
38613;SDS011;24369;49.480;8.488;2022-07-25T00:14:46;208.32;;;190.57;;
38613;SDS011;24369;49.480;8.488;2022-07-25T00:17:12;195.20;;;178.88;;
38613;SDS011;24369;49.480;8.488;2022-07-25T00:19:37;196.50;;;179.30;;
38613;SDS011;24369;49.480;8.488;2022-07-25T00:22:03;192.90;;;176.77;;
38613;SDS011;24369;49.480;8.488;2022-07-25T00:24:28;194.63;;;178.38;;
38613;SDS011;24369;49.480;8.488;2022-07-25T00:26:53;196.88;;;179.45;;
38613;SDS011;24369;49.480;8.488;2022-07-25T00:29:19;188.07;;;171.57;;
38613;SDS011;24369;49.480;8.488;2022-07-25T00:31:44;186.90;;;170.98;;
38613;SDS011;24369;49.480;8.488;2022-07-25T00:34:10;195.02;;;178.15;;
38613;SDS011;24369;49.480;8.488;2022-07-25T00:36:35;187.43;;;170.68;;
38613;SDS011;24369;49.480;8.488;2022-07-25T00:39:00;181.65;;;166.38;;
38613;SDS011;24369;49.480;8.488;2022-07-25T00:41:26;197.10;;;180.23;;
38613;SDS011;24369;49.480;8.488;2022-07-25T00:43:51;200.23;;;181.18;;
38613;SDS011;24369;49.480;8.488;2022-07-25T00:46:17;194.10;;;177.77;;
38613;SDS011;24369;49.480;8.488;2022-07-25T00:48:43;194.57;;;177.68;;
38613;SDS011;24369;49.480;8.488;2022-07-25T00:51:09;192.73;;;175.43;;
38613;SDS011;24369;49.480;8.488;2022-07-25T00:53:36;197.18;;;179.60;;
38613;SDS011;24369;49.480;8.488;2022-07-25T00:56:03;185.88;;;169.57;;
38613;SDS011;24369;49.480;8.488;2022-07-25T00:58:29;193.85;;;176.55;;
38613;SDS011;24369;49.480;8.488;2022-07-25T01:00:55;189.32;;;171.93;;
38613;SDS011;24369;49.480;8.488;2022-07-25T01:03:21;182.30;;;165.38;;
38613;SDS011;24369;49.480;8.488;2022-07-25T01:05:47;183.35;;;166.68;;
38613;SDS011;24369;49.480;8.488;2022-07-25T01:08:14;182.38;;;166.18;;
38613;SDS011;24369;49.480;8.488;2022-07-25T01:10:42;182.73;;;165.73;;
38613;SDS011;24369;49.480;8.488;2022-07-25T01:13:08;184.30;;;168.13;;
38613;SDS011;24369;49.480;8.488;2022-07-25T01:15:34;187.00;;;169.98;;
38613;SDS011;24369;49.480;8.488;2022-07-25T01:17:59;182.57;;;165.88;;
38613;SDS011;24369;49.480;8.488;2022-07-25T01:20:25;182.95;;;166.15;;
38613;SDS011;24369;49.480;8.488;2022-07-25T01:22:52;192.25;;;174.90;;
38613;SDS011;24369;49.480;8.488;2022-07-25T01:25:18;182.32;;;165.63;;
38613;SDS011;24369;49.480;8.488;2022-07-25T01:27:44;179.13;;;162.77;;
38613;SDS011;24369;49.480;8.488;2022-07-25T01:30:12;176.77;;;160.70;;
38613;SDS011;24369;49.480;8.488;2022-07-25T01:32:39;184.88;;;168.30;;
38613;SDS011;24369;49.480;8.488;2022-07-25T01:35:05;181.60;;;164.85;;
38613;SDS011;24369;49.480;8.488;2022-07-25T01:37:31;191.50;;;174.18;;
38613;SDS011;24369;49.480;8.488;2022-07-25T01:39:57;190.45;;;173.32;;
38613;SDS011;24369;49.480;8.488;2022-07-25T01:42:23;188.65;;;171.70;;
38613;SDS011;24369;49.480;8.488;2022-07-25T01:44:48;193.80;;;175.57;;
38613;SDS011;24369;49.480;8.488;2022-07-25T01:47:14;184.82;;;167.77;;
38613;SDS011;24369;49.480;8.488;2022-07-25T01:49:41;185.10;;;168.32;;
38613;SDS011;24369;49.480;8.488;2022-07-25T01:52:07;177.90;;;161.02;;
38613;SDS011;24369;49.480;8.488;2022-07-25T01:54:32;178.68;;;162.38;;
38613;SDS011;24369;49.480;8.488;2022-07-25T01:56:58;188.52;;;170.60;;
38613;SDS011;24369;49.480;8.488;2022-07-25T01:59:23;187.63;;;171.23;;
38613;SDS011;24369;49.480;8.488;2022-07-25T02:01:49;176.10;;;160.40;;
38613;SDS011;24369;49.480;8.488;2022-07-25T02:04:14;185.32;;;169.18;;
38613;SDS011;24369;49.480;8.488;2022-07-25T02:06:42;187.68;;;170.75;;
38613;SDS011;24369;49.480;8.488;2022-07-25T02:09:08;187.90;;;171.25;;
38613;SDS011;24369;49.480;8.488;2022-07-25T02:11:33;177.90;;;161.60;;
38613;SDS011;24369;49.480;8.488;2022-07-25T02:13:59;190.00;;;172.50;;
38613;SDS011;24369;49.480;8.488;2022-07-25T02:16:25;196.27;;;179.43;;
38613;SDS011;24369;49.480;8.488;2022-07-25T02:18:50;193.63;;;176.43;;
38613;SDS011;24369;49.480;8.488;2022-07-25T02:21:16;200.80;;;182.50;;
38613;SDS011;24369;49.480;8.488;2022-07-25T02:23:42;196.82;;;179.00;;
38613;SDS011;24369;49.480;8.488;2022-07-25T02:26:08;182.23;;;166.13;;
38613;SDS011;24369;49.480;8.488;2022-07-25T02:28:33;204.52;;;185.43;;
38613;SDS011;24369;49.480;8.488;2022-07-25T02:30:59;183.70;;;166.45;;
38613;SDS011;24369;49.480;8.488;2022-07-25T02:33:25;183.98;;;167.32;;
38613;SDS011;24369;49.480;8.488;2022-07-25T02:35:50;185.73;;;168.55;;
38613;SDS011;24369;49.480;8.488;2022-07-25T02:38:15;180.20;;;163.55;;
38613;SDS011;24369;49.480;8.488;2022-07-25T02:40:47;194.40;;;176.00;;
38613;SDS011;24369;49.480;8.488;2022-07-25T02:43:13;183.55;;;166.52;;
38613;SDS011;24369;49.480;8.488;2022-07-25T02:45:38;181.98;;;164.93;;
38613;SDS011;24369;49.480;8.488;2022-07-25T02:48:04;180.15;;;162.48;;
38613;SDS011;24369;49.480;8.488;2022-07-25T02:50:30;184.88;;;167.32;;
38613;SDS011;24369;49.480;8.488;2022-07-25T02:52:55;183.32;;;165.55;;
38613;SDS011;24369;49.480;8.488;2022-07-25T02:55:21;187.93;;;169.82;;
38613;SDS011;24369;49.480;8.488;2022-07-25T02:57:46;190.80;;;173.82;;
38613;SDS011;24369;49.480;8.488;2022-07-25T03:00:12;196.38;;;177.98;;
38613;SDS011;24369;49.480;8.488;2022-07-25T03:02:38;174.35;;;157.55;;
38613;SDS011;24369;49.480;8.488;2022-07-25T03:05:07;183.90;;;166.73;;
38613;SDS011;24369;49.480;8.488;2022-07-25T03:07:34;179.57;;;162.43;;
38613;SDS011;24369;49.480;8.488;2022-07-25T03:10:00;192.10;;;173.90;;
38613;SDS011;24369;49.480;8.488;2022-07-25T03:12:26;182.77;;;165.27;;
38613;SDS011;24369;49.480;8.488;2022-07-25T03:14:51;177.25;;;161.13;;
38613;SDS011;24369;49.480;8.488;2022-07-25T03:17:17;171.68;;;155.77;;
38613;SDS011;24369;49.480;8.488;2022-07-25T03:19:42;177.10;;;161.00;;
38613;SDS011;24369;49.480;8.488;2022-07-25T03:22:08;182.35;;;165.93;;
38613;SDS011;24369;49.480;8.488;2022-07-25T03:24:33;183.60;;;167.15;;
38613;SDS011;24369;49.480;8.488;2022-07-25T03:26:58;203.80;;;185.02;;
38613;SDS011;24369;49.480;8.488;2022-07-25T03:29:24;182.80;;;165.35;;
38613;SDS011;24369;49.480;8.488;2022-07-25T03:31:49;172.57;;;156.57;;
38613;SDS011;24369;49.480;8.488;2022-07-25T03:34:14;171.55;;;156.00;;
38613;SDS011;24369;49.480;8.488;2022-07-25T03:36:40;177.13;;;160.90;;
38613;SDS011;24369;49.480;8.488;2022-07-25T03:39:05;163.35;;;147.38;;
38613;SDS011;24369;49.480;8.488;2022-07-25T03:41:31;181.85;;;164.13;;
38613;SDS011;24369;49.480;8.488;2022-07-25T03:43:56;178.07;;;160.85;;
38613;SDS011;24369;49.480;8.488;2022-07-25T03:46:21;166.43;;;151.05;;
38613;SDS011;24369;49.480;8.488;2022-07-25T03:48:47;166.98;;;151.07;;
38613;SDS011;24369;49.480;8.488;2022-07-25T03:51:12;181.30;;;163.60;;
38613;SDS011;24369;49.480;8.488;2022-07-25T03:53:37;180.85;;;163.68;;
38613;SDS011;24369;49.480;8.488;2022-07-25T03:56:23;171.60;;;155.63;;
38613;SDS011;24369;49.480;8.488;2022-07-25T03:58:48;165.45;;;149.80;;
38613;SDS011;24369;49.480;8.488;2022-07-25T04:01:14;165.77;;;150.30;;
38613;SDS011;24369;49.480;8.488;2022-07-25T04:03:39;167.38;;;150.60;;
38613;SDS011;24369;49.480;8.488;2022-07-25T04:06:04;174.00;;;156.73;;
38613;SDS011;24369;49.480;8.488;2022-07-25T04:08:30;192.93;;;175.18;;
38613;SDS011;24369;49.480;8.488;2022-07-25T04:10:55;190.30;;;172.10;;
38613;SDS011;24369;49.480;8.488;2022-07-25T04:13:20;206.35;;;188.13;;
38613;SDS011;24369;49.480;8.488;2022-07-25T04:15:46;190.23;;;173.35;;
38613;SDS011;24369;49.480;8.488;2022-07-25T04:18:11;189.43;;;170.80;;
38613;SDS011;24369;49.480;8.488;2022-07-25T04:20:36;182.98;;;166.32;;
38613;SDS011;24369;49.480;8.488;2022-07-25T04:23:02;195.20;;;176.55;;
38613;SDS011;24369;49.480;8.488;2022-07-25T04:25:27;189.05;;;171.35;;
38613;SDS011;24369;49.480;8.488;2022-07-25T04:27:52;189.63;;;172.38;;
38613;SDS011;24369;49.480;8.488;2022-07-25T04:30:18;181.70;;;165.23;;
38613;SDS011;24369;49.480;8.488;2022-07-25T04:32:44;205.65;;;187.32;;
38613;SDS011;24369;49.480;8.488;2022-07-25T04:35:09;179.77;;;162.48;;
38613;SDS011;24369;49.480;8.488;2022-07-25T04:37:35;204.30;;;185.77;;
38613;SDS011;24369;49.480;8.488;2022-07-25T04:40:01;205.55;;;185.77;;
38613;SDS011;24369;49.480;8.488;2022-07-25T04:42:27;183.48;;;166.35;;
38613;SDS011;24369;49.480;8.488;2022-07-25T04:44:53;173.25;;;156.20;;
38613;SDS011;24369;49.480;8.488;2022-07-25T04:47:18;175.57;;;159.50;;
38613;SDS011;24369;49.480;8.488;2022-07-25T04:49:43;177.25;;;160.63;;
38613;SDS011;24369;49.480;8.488;2022-07-25T04:52:09;169.43;;;153.27;;
38613;SDS011;24369;49.480;8.488;2022-07-25T04:54:34;172.48;;;156.63;;
38613;SDS011;24369;49.480;8.488;2022-07-25T04:57:00;178.45;;;162.02;;
38613;SDS011;24369;49.480;8.488;2022-07-25T04:59:25;190.88;;;173.30;;
38613;SDS011;24369;49.480;8.488;2022-07-25T05:01:50;167.05;;;151.18;;
38613;SDS011;24369;49.480;8.488;2022-07-25T05:04:16;173.23;;;156.10;;
38613;SDS011;24369;49.480;8.488;2022-07-25T05:06:41;178.52;;;161.63;;
38613;SDS011;24369;49.480;8.488;2022-07-25T05:09:06;184.68;;;167.25;;
38613;SDS011;24369;49.480;8.488;2022-07-25T05:11:32;171.48;;;155.65;;
38613;SDS011;24369;49.480;8.488;2022-07-25T05:13:57;204.23;;;187.25;;
38613;SDS011;24369;49.480;8.488;2022-07-25T05:16:22;183.23;;;166.73;;
38613;SDS011;24369;49.480;8.488;2022-07-25T05:18:48;201.77;;;183.95;;
38613;SDS011;24369;49.480;8.488;2022-07-25T05:21:13;184.57;;;167.02;;
38613;SDS011;24369;49.480;8.488;2022-07-25T05:23:39;184.82;;;167.75;;
38613;SDS011;24369;49.480;8.488;2022-07-25T05:26:04;193.23;;;175.98;;
38613;SDS011;24369;49.480;8.488;2022-07-25T05:28:29;203.63;;;185.75;;
38613;SDS011;24369;49.480;8.488;2022-07-25T05:30:55;205.80;;;187.48;;
38613;SDS011;24369;49.480;8.488;2022-07-25T05:33:20;197.80;;;180.68;;
38613;SDS011;24369;49.480;8.488;2022-07-25T05:35:46;196.18;;;179.40;;
38613;SDS011;24369;49.480;8.488;2022-07-25T05:38:11;214.52;;;195.07;;
38613;SDS011;24369;49.480;8.488;2022-07-25T05:40:36;204.88;;;186.60;;
38613;SDS011;24369;49.480;8.488;2022-07-25T05:43:02;218.23;;;199.07;;
38613;SDS011;24369;49.480;8.488;2022-07-25T05:45:27;215.63;;;198.10;;
38613;SDS011;24369;49.480;8.488;2022-07-25T05:47:52;201.10;;;183.85;;
38613;SDS011;24369;49.480;8.488;2022-07-25T05:50:18;202.05;;;184.85;;
38613;SDS011;24369;49.480;8.488;2022-07-25T05:52:43;215.05;;;196.63;;
38613;SDS011;24369;49.480;8.488;2022-07-25T05:55:08;206.10;;;187.88;;
38613;SDS011;24369;49.480;8.488;2022-07-25T05:57:34;202.88;;;185.57;;
38613;SDS011;24369;49.480;8.488;2022-07-25T06:00:01;224.20;;;204.85;;
38613;SDS011;24369;49.480;8.488;2022-07-25T06:02:29;207.45;;;190.10;;
38613;SDS011;24369;49.480;8.488;2022-07-25T06:04:54;210.02;;;192.52;;
38613;SDS011;24369;49.480;8.488;2022-07-25T06:07:19;220.57;;;202.20;;
38613;SDS011;24369;49.480;8.488;2022-07-25T06:09:45;241.88;;;221.93;;
38613;SDS011;24369;49.480;8.488;2022-07-25T06:12:11;223.73;;;205.05;;
38613;SDS011;24369;49.480;8.488;2022-07-25T06:14:37;233.02;;;214.18;;
38613;SDS011;24369;49.480;8.488;2022-07-25T06:17:03;197.13;;;179.75;;
38613;SDS011;24369;49.480;8.488;2022-07-25T06:19:28;223.95;;;204.77;;
38613;SDS011;24369;49.480;8.488;2022-07-25T06:21:54;234.88;;;214.90;;
38613;SDS011;24369;49.480;8.488;2022-07-25T06:24:19;229.02;;;208.82;;
38613;SDS011;24369;49.480;8.488;2022-07-25T06:26:45;219.30;;;200.68;;
38613;SDS011;24369;49.480;8.488;2022-07-25T06:29:10;263.13;;;242.80;;
38613;SDS011;24369;49.480;8.488;2022-07-25T06:31:36;232.55;;;213.80;;
38613;SDS011;24369;49.480;8.488;2022-07-25T06:34:01;219.20;;;201.02;;
38613;SDS011;24369;49.480;8.488;2022-07-25T06:36:27;229.38;;;209.93;;
38613;SDS011;24369;49.480;8.488;2022-07-25T06:38:52;226.23;;;207.27;;
38613;SDS011;24369;49.480;8.488;2022-07-25T06:41:18;234.77;;;214.95;;
38613;SDS011;24369;49.480;8.488;2022-07-25T06:43:43;219.20;;;200.98;;
38613;SDS011;24369;49.480;8.488;2022-07-25T06:46:09;236.68;;;217.25;;
38613;SDS011;24369;49.480;8.488;2022-07-25T06:48:34;218.95;;;201.38;;
38613;SDS011;24369;49.480;8.488;2022-07-25T06:51:00;251.02;;;230.95;;
38613;SDS011;24369;49.480;8.488;2022-07-25T06:53:26;242.18;;;221.65;;
38613;SDS011;24369;49.480;8.488;2022-07-25T06:55:51;253.00;;;232.60;;
38613;SDS011;24369;49.480;8.488;2022-07-25T06:58:16;254.88;;;235.02;;
38613;SDS011;24369;49.480;8.488;2022-07-25T07:00:42;240.88;;;220.38;;
38613;SDS011;24369;49.480;8.488;2022-07-25T07:03:07;214.18;;;195.63;;
38613;SDS011;24369;49.480;8.488;2022-07-25T07:05:33;222.27;;;203.48;;
38613;SDS011;24369;49.480;8.488;2022-07-25T07:08:00;215.32;;;197.57;;
38613;SDS011;24369;49.480;8.488;2022-07-25T07:10:27;229.23;;;211.50;;
38613;SDS011;24369;49.480;8.488;2022-07-25T07:13:09;242.88;;;224.27;;
38613;SDS011;24369;49.480;8.488;2022-07-25T07:15:37;236.45;;;217.48;;
38613;SDS011;24369;49.480;8.488;2022-07-25T07:18:04;255.35;;;235.07;;
38613;SDS011;24369;49.480;8.488;2022-07-25T07:20:30;242.23;;;223.27;;
38613;SDS011;24369;49.480;8.488;2022-07-25T07:22:56;261.20;;;240.90;;
38613;SDS011;24369;49.480;8.488;2022-07-25T07:25:21;251.52;;;231.60;;
38613;SDS011;24369;49.480;8.488;2022-07-25T07:27:48;248.45;;;228.38;;
38613;SDS011;24369;49.480;8.488;2022-07-25T07:30:15;252.85;;;233.30;;
38613;SDS011;24369;49.480;8.488;2022-07-25T07:32:41;235.00;;;216.18;;
38613;SDS011;24369;49.480;8.488;2022-07-25T07:35:07;247.75;;;227.93;;
38613;SDS011;24369;49.480;8.488;2022-07-25T07:37:33;232.68;;;215.30;;
38613;SDS011;24369;49.480;8.488;2022-07-25T07:39:59;212.98;;;195.02;;
38613;SDS011;24369;49.480;8.488;2022-07-25T07:42:24;209.13;;;191.38;;
38613;SDS011;24369;49.480;8.488;2022-07-25T07:44:50;209.20;;;191.43;;
38613;SDS011;24369;49.480;8.488;2022-07-25T07:47:15;209.90;;;191.02;;
38613;SDS011;24369;49.480;8.488;2022-07-25T07:49:40;190.30;;;173.52;;
38613;SDS011;24369;49.480;8.488;2022-07-25T07:52:05;216.68;;;197.70;;
38613;SDS011;24369;49.480;8.488;2022-07-25T07:54:31;233.98;;;215.50;;
38613;SDS011;24369;49.480;8.488;2022-07-25T07:57:15;234.98;;;215.23;;
38613;SDS011;24369;49.480;8.488;2022-07-25T07:59:40;208.95;;;191.23;;
38613;SDS011;24369;49.480;8.488;2022-07-25T08:02:05;206.07;;;188.73;;
38613;SDS011;24369;49.480;8.488;2022-07-25T08:04:31;205.60;;;187.63;;
38613;SDS011;24369;49.480;8.488;2022-07-25T08:06:56;203.95;;;186.13;;
38613;SDS011;24369;49.480;8.488;2022-07-25T08:09:21;196.75;;;179.00;;
38613;SDS011;24369;49.480;8.488;2022-07-25T08:11:49;208.23;;;189.55;;
38613;SDS011;24369;49.480;8.488;2022-07-25T08:14:15;201.45;;;184.23;;
38613;SDS011;24369;49.480;8.488;2022-07-25T08:16:41;210.57;;;191.80;;
38613;SDS011;24369;49.480;8.488;2022-07-25T08:19:06;200.20;;;183.38;;
38613;SDS011;24369;49.480;8.488;2022-07-25T08:21:31;203.65;;;185.90;;
38613;SDS011;24369;49.480;8.488;2022-07-25T08:23:57;194.75;;;176.65;;
38613;SDS011;24369;49.480;8.488;2022-07-25T08:26:22;198.85;;;179.77;;
38613;SDS011;24369;49.480;8.488;2022-07-25T08:28:48;191.38;;;173.80;;
38613;SDS011;24369;49.480;8.488;2022-07-25T08:31:13;210.90;;;190.75;;
38613;SDS011;24369;49.480;8.488;2022-07-25T08:33:38;205.93;;;189.35;;
38613;SDS011;24369;49.480;8.488;2022-07-25T08:36:04;217.18;;;198.00;;
38613;SDS011;24369;49.480;8.488;2022-07-25T08:38:29;207.57;;;190.27;;
38613;SDS011;24369;49.480;8.488;2022-07-25T08:40:55;207.73;;;188.73;;
38613;SDS011;24369;49.480;8.488;2022-07-25T08:43:21;187.20;;;169.88;;
38613;SDS011;24369;49.480;8.488;2022-07-25T08:45:48;210.65;;;191.38;;
38613;SDS011;24369;49.480;8.488;2022-07-25T08:48:22;208.73;;;189.50;;
38613;SDS011;24369;49.480;8.488;2022-07-25T08:50:48;196.80;;;176.63;;
38613;SDS011;24369;49.480;8.488;2022-07-25T08:53:15;185.80;;;169.18;;
38613;SDS011;24369;49.480;8.488;2022-07-25T08:55:43;227.23;;;209.68;;
38613;SDS011;24369;49.480;8.488;2022-07-25T08:58:09;214.85;;;197.45;;
38613;SDS011;24369;49.480;8.488;2022-07-25T09:00:36;220.40;;;202.63;;
38613;SDS011;24369;49.480;8.488;2022-07-25T09:03:02;209.85;;;192.50;;
38613;SDS011;24369;49.480;8.488;2022-07-25T09:05:32;192.20;;;175.70;;
38613;SDS011;24369;49.480;8.488;2022-07-25T09:08:11;206.07;;;188.90;;
38613;SDS011;24369;49.480;8.488;2022-07-25T09:10:39;184.68;;;168.30;;
38613;SDS011;24369;49.480;8.488;2022-07-25T09:13:10;163.63;;;148.23;;
38613;SDS011;24369;49.480;8.488;2022-07-25T09:15:42;152.73;;;138.05;;
38613;SDS011;24369;49.480;8.488;2022-07-25T09:18:21;169.13;;;151.52;;
38613;SDS011;24369;49.480;8.488;2022-07-25T09:20:49;176.07;;;159.15;;
38613;SDS011;24369;49.480;8.488;2022-07-25T09:26:08;189.57;;;172.82;;
38613;SDS011;24369;49.480;8.488;2022-07-25T09:28:46;194.18;;;177.27;;
38613;SDS011;24369;49.480;8.488;2022-07-25T09:31:17;191.88;;;175.63;;
38613;SDS011;24369;49.480;8.488;2022-07-25T09:33:46;198.48;;;180.18;;
38613;SDS011;24369;49.480;8.488;2022-07-25T09:36:11;172.65;;;156.43;;
38613;SDS011;24369;49.480;8.488;2022-07-25T09:38:37;185.55;;;169.38;;
38613;SDS011;24369;49.480;8.488;2022-07-25T09:41:03;180.15;;;163.68;;
38613;SDS011;24369;49.480;8.488;2022-07-25T09:43:38;191.02;;;173.00;;
38613;SDS011;24369;49.480;8.488;2022-07-25T09:46:05;192.75;;;176.40;;
38613;SDS011;24369;49.480;8.488;2022-07-25T09:48:32;178.00;;;161.50;;
38613;SDS011;24369;49.480;8.488;2022-07-25T09:50:59;192.45;;;175.48;;
38613;SDS011;24369;49.480;8.488;2022-07-25T09:53:24;156.38;;;140.75;;
38613;SDS011;24369;49.480;8.488;2022-07-25T09:55:50;154.75;;;139.82;;
38613;SDS011;24369;49.480;8.488;2022-07-25T09:58:22;159.57;;;144.15;;
38613;SDS011;24369;49.480;8.488;2022-07-25T10:00:49;169.73;;;152.43;;
38613;SDS011;24369;49.480;8.488;2022-07-25T10:03:28;170.18;;;152.82;;
38613;SDS011;24369;49.480;8.488;2022-07-25T10:09:02;161.85;;;145.98;;
38613;SDS011;24369;49.480;8.488;2022-07-25T10:11:27;161.63;;;145.85;;
38613;SDS011;24369;49.480;8.488;2022-07-25T10:13:54;167.45;;;151.85;;
38613;SDS011;24369;49.480;8.488;2022-07-25T10:16:24;150.70;;;135.27;;
38613;SDS011;24369;49.480;8.488;2022-07-25T10:18:54;144.98;;;130.40;;
38613;SDS011;24369;49.480;8.488;2022-07-25T10:21:21;146.82;;;132.07;;
38613;SDS011;24369;49.480;8.488;2022-07-25T10:23:58;149.93;;;134.85;;
38613;SDS011;24369;49.480;8.488;2022-07-25T10:26:25;163.55;;;147.77;;
38613;SDS011;24369;49.480;8.488;2022-07-25T10:28:51;168.80;;;153.52;;
38613;SDS011;24369;49.480;8.488;2022-07-25T10:33:47;172.13;;;156.25;;
38613;SDS011;24369;49.480;8.488;2022-07-25T10:36:25;205.27;;;184.18;;
38613;SDS011;24369;49.480;8.488;2022-07-25T10:38:56;173.18;;;157.75;;
38613;SDS011;24369;49.480;8.488;2022-07-25T10:41:24;176.32;;;159.90;;
38613;SDS011;24369;49.480;8.488;2022-07-25T10:43:59;163.32;;;146.55;;
38613;SDS011;24369;49.480;8.488;2022-07-25T10:46:26;165.68;;;149.50;;
38613;SDS011;24369;49.480;8.488;2022-07-25T10:48:59;178.70;;;162.00;;
38613;SDS011;24369;49.480;8.488;2022-07-25T10:51:27;167.10;;;152.10;;
38613;SDS011;24369;49.480;8.488;2022-07-25T10:53:53;177.45;;;161.65;;
38613;SDS011;24369;49.480;8.488;2022-07-25T10:56:23;178.30;;;160.80;;
38613;SDS011;24369;49.480;8.488;2022-07-25T10:58:56;167.30;;;152.37;;
38613;SDS011;24369;49.480;8.488;2022-07-25T11:01:26;188.75;;;171.35;;
38613;SDS011;24369;49.480;8.488;2022-07-25T11:03:57;173.80;;;158.82;;
38613;SDS011;24369;49.480;8.488;2022-07-25T11:08:59;174.52;;;159.07;;
38613;SDS011;24369;49.480;8.488;2022-07-25T11:11:32;175.13;;;159.52;;
38613;SDS011;24369;49.480;8.488;2022-07-25T11:13:59;175.10;;;158.75;;
38613;SDS011;24369;49.480;8.488;2022-07-25T11:16:25;172.68;;;157.10;;
38613;SDS011;24369;49.480;8.488;2022-07-25T11:18:51;168.45;;;153.30;;
38613;SDS011;24369;49.480;8.488;2022-07-25T11:21:18;166.32;;;150.65;;
38613;SDS011;24369;49.480;8.488;2022-07-25T11:23:48;181.32;;;165.27;;
38613;SDS011;24369;49.480;8.488;2022-07-25T11:26:15;173.50;;;157.02;;
38613;SDS011;24369;49.480;8.488;2022-07-25T11:28:48;182.20;;;166.38;;
38613;SDS011;24369;49.480;8.488;2022-07-25T11:31:14;165.60;;;151.85;;
38613;SDS011;24369;49.480;8.488;2022-07-25T11:33:43;174.85;;;159.05;;
38613;SDS011;24369;49.480;8.488;2022-07-25T11:36:10;181.77;;;165.30;;
38613;SDS011;24369;49.480;8.488;2022-07-25T11:38:38;185.27;;;169.73;;
38613;SDS011;24369;49.480;8.488;2022-07-25T11:41:04;177.30;;;161.73;;
38613;SDS011;24369;49.480;8.488;2022-07-25T11:43:30;192.73;;;175.05;;
38613;SDS011;24369;49.480;8.488;2022-07-25T11:45:58;170.93;;;155.43;;
38613;SDS011;24369;49.480;8.488;2022-07-25T11:48:33;175.18;;;158.52;;
38613;SDS011;24369;49.480;8.488;2022-07-25T11:51:10;187.13;;;169.02;;
38613;SDS011;24369;49.480;8.488;2022-07-25T11:53:42;168.93;;;153.27;;
38613;SDS011;24369;49.480;8.488;2022-07-25T11:56:12;173.98;;;158.32;;
38613;SDS011;24369;49.480;8.488;2022-07-25T11:58:43;173.20;;;158.23;;
38613;SDS011;24369;49.480;8.488;2022-07-25T12:01:14;172.83;;;156.20;;
38613;SDS011;24369;49.480;8.488;2022-07-25T12:03:40;172.02;;;156.05;;
38613;SDS011;24369;49.480;8.488;2022-07-25T12:06:07;178.32;;;160.20;;
38613;SDS011;24369;49.480;8.488;2022-07-25T12:08:37;166.95;;;151.48;;
38613;SDS011;24369;49.480;8.488;2022-07-25T12:11:14;169.55;;;154.82;;
38613;SDS011;24369;49.480;8.488;2022-07-25T12:13:41;165.07;;;149.93;;
38613;SDS011;24369;49.480;8.488;2022-07-25T12:16:06;195.55;;;177.77;;
38613;SDS011;24369;49.480;8.488;2022-07-25T12:18:32;184.82;;;168.50;;
38613;SDS011;24369;49.480;8.488;2022-07-25T12:20:57;193.43;;;176.23;;
38613;SDS011;24369;49.480;8.488;2022-07-25T12:23:22;178.18;;;161.65;;
38613;SDS011;24369;49.480;8.488;2022-07-25T12:25:48;182.18;;;165.63;;
38613;SDS011;24369;49.480;8.488;2022-07-25T12:28:14;190.70;;;171.77;;
38613;SDS011;24369;49.480;8.488;2022-07-25T12:30:41;168.65;;;153.35;;
38613;SDS011;24369;49.480;8.488;2022-07-25T12:33:08;169.00;;;153.75;;
38613;SDS011;24369;49.480;8.488;2022-07-25T12:35:34;180.18;;;163.55;;
38613;SDS011;24369;49.480;8.488;2022-07-25T12:38:01;178.88;;;161.32;;
38613;SDS011;24369;49.480;8.488;2022-07-25T12:40:27;177.82;;;162.13;;
38613;SDS011;24369;49.480;8.488;2022-07-25T12:42:52;171.80;;;156.30;;
38613;SDS011;24369;49.480;8.488;2022-07-25T12:45:18;169.63;;;153.38;;
38613;SDS011;24369;49.480;8.488;2022-07-25T12:47:44;185.35;;;169.30;;
38613;SDS011;24369;49.480;8.488;2022-07-25T12:50:10;170.02;;;155.13;;
38613;SDS011;24369;49.480;8.488;2022-07-25T12:52:37;171.63;;;155.55;;
38613;SDS011;24369;49.480;8.488;2022-07-25T12:55:04;173.55;;;158.38;;
38613;SDS011;24369;49.480;8.488;2022-07-25T12:57:31;162.57;;;147.15;;
38613;SDS011;24369;49.480;8.488;2022-07-25T12:59:56;171.25;;;154.90;;
38613;SDS011;24369;49.480;8.488;2022-07-25T13:02:21;152.52;;;139.35;;
38613;SDS011;24369;49.480;8.488;2022-07-25T13:04:47;161.80;;;146.15;;
38613;SDS011;24369;49.480;8.488;2022-07-25T13:07:13;158.73;;;144.38;;
38613;SDS011;24369;49.480;8.488;2022-07-25T13:09:40;156.82;;;142.90;;
38613;SDS011;24369;49.480;8.488;2022-07-25T13:12:06;157.27;;;142.30;;
38613;SDS011;24369;49.480;8.488;2022-07-25T13:14:32;201.70;;;183.88;;
38613;SDS011;24369;49.480;8.488;2022-07-25T13:16:58;152.48;;;139.07;;
38613;SDS011;24369;49.480;8.488;2022-07-25T13:19:23;154.20;;;139.90;;
38613;SDS011;24369;49.480;8.488;2022-07-25T13:21:49;151.98;;;137.70;;
38613;SDS011;24369;49.480;8.488;2022-07-25T13:24:14;158.15;;;142.57;;
38613;SDS011;24369;49.480;8.488;2022-07-25T13:26:39;156.40;;;141.90;;
38613;SDS011;24369;49.480;8.488;2022-07-25T13:29:05;167.75;;;151.90;;
38613;SDS011;24369;49.480;8.488;2022-07-25T13:31:32;157.27;;;141.73;;
38613;SDS011;24369;49.480;8.488;2022-07-25T13:34:07;152.65;;;137.68;;
38613;SDS011;24369;49.480;8.488;2022-07-25T13:36:33;162.90;;;147.85;;
38613;SDS011;24369;49.480;8.488;2022-07-25T13:38:59;150.18;;;136.35;;
38613;SDS011;24369;49.480;8.488;2022-07-25T13:41:24;145.05;;;131.20;;
38613;SDS011;24369;49.480;8.488;2022-07-25T13:43:50;147.73;;;133.27;;
38613;SDS011;24369;49.480;8.488;2022-07-25T13:46:15;153.82;;;139.02;;
38613;SDS011;24369;49.480;8.488;2022-07-25T13:48:41;156.38;;;141.60;;
38613;SDS011;24369;49.480;8.488;2022-07-25T13:51:06;156.00;;;140.13;;
38613;SDS011;24369;49.480;8.488;2022-07-25T13:53:32;142.07;;;127.75;;
38613;SDS011;24369;49.480;8.488;2022-07-25T13:55:58;140.45;;;126.75;;
38613;SDS011;24369;49.480;8.488;2022-07-25T13:58:24;141.32;;;126.32;;
38613;SDS011;24369;49.480;8.488;2022-07-25T14:00:50;147.98;;;132.90;;
38613;SDS011;24369;49.480;8.488;2022-07-25T14:03:16;144.90;;;130.60;;